METAR Data
IDs: Format: Raw Decoded Include TAF

Data at: 0001 UTC 25 Apr 2019

PAPH 242356Z AUTO 35018G23KT 10SM FEW028 BKN100 02/M04 A3001 RMK AO2 SLP165 T00221039 10028 20006 51015 FZRANO
PAPH 242256Z AUTO 01016KT 10SM SCT024 BKN090 02/M03 A2999 RMK AO2 SLP160 T00221033 FZRANO
PAPH 242156Z AUTO 02017KT 10SM FEW020 OVC036 02/M03 A2998 RMK AO2 SLP157 T00171028 FZRANO
PAPH 242056Z AUTO 36017KT 10SM BKN020 OVC035 01/M03 A2997 RMK AO2 SLP151 T00111028 53017 FZRANO
PAPH 241956Z AUTO 01021KT 10SM BKN020 01/M03 A2994 RMK AO2 SLP143 T00061028 FZRANO
PAPH 241856Z AUTO 02019G24KT 10SM CLR 01/M05 A2992 RMK AO2 SLP135 T00061050 FZRANO
PAPH 241756Z AUTO 05008KT 10SM BKN034 OVC042 M01/M04 A2992 RMK AO2 SLP134 60000 T10111039 11006 21022 53021 FZRANO
PAPH 241656Z AUTO 03013KT 10SM OVC041 M01/M04 A2989 RMK AO2 SNE21 SLP126 P0000 T10111044 FZRANO
PAPH 241607Z AUTO 03012KT 2 1/2SM -SN BR BKN100 M02/M03 A2988 RMK AO2 VIS 1 3/4V5 P0000 FZRANO
PAPH 241556Z AUTO 04011KT 1 3/4SM -SN BR BKN100 M02/M03 A2988 RMK AO2 SLP122 P0000 T10171028 FZRANO
PAPH 241526Z AUTO 04014KT 1 1/4SM -SN BR SCT012 BKN110 M02/M03 A2987 RMK AO2 P0000 FZRANO
PAPH 241522Z AUTO 03015KT 1SM -SN BR BKN012 BKN110 M02/M03 A2987 RMK AO2 P0000 FZRANO
PAPH 241509Z AUTO 03015KT 1/2SM SN FZFG BKN012 BKN019 M02/M03 A2986 RMK AO2 P0000 FZRANO
PAPH 241500Z AUTO 03015G22KT 3/4SM -SN BR BKN012 BKN019 BKN100 M02/M03 A2986 RMK AO2 P0000 FZRANO
PAPH 241458Z AUTO 03016G22KT 1SM -SN BR SCT012 BKN019 BKN110 M02/M03 A2986 RMK AO2 P0000 FZRANO
PAPH 241456Z AUTO 04016G22KT 1 1/4SM -SN BR SCT012 SCT019 BKN110 M02/M03 A2986 RMK AO2 UPB03E22SNB22 SLP114 P0000 60000 T10221033 53016 FZRANO
PAPH 241256Z AUTO 03015G23KT 10SM OVC048 M01/M05 A2981 RMK AO2 UPB24E35 SLP098 P0000 T10061050 FZRANO
PAPH 241156Z AUTO 04013KT 10SM OVC070 M01/M04 A2981 RMK AO2 SLP098 60000 70001 T10061039 11006 21017 53011 FZRANO
PAPH 241056Z AUTO 03013KT 10SM OVC047 M01/M04 A2980 RMK AO2 UPB08E11SNE08 SLP094 P0000 T10061044 FZRANO
PAPH 240956Z AUTO 03012KT 9SM -SN SCT045 OVC055 M01/M04 A2979 RMK AO2 UPB37E46SNE37B46 SLP090 P0000 T10111039 FZRANO
PAPH 240856Z AUTO 05017KT 6SM -SN BR BKN050 BKN060 OVC110 M01/M03 A2978 RMK AO2 UPB06E11SNE06B11 SLP086 P0000 60000 T10111033 53007 FZRANO
PAPH 240756Z AUTO 05016KT 10SM -SN OVC050 M01/M04 A2977 RMK AO2 UPB08E15SNE08B56 SLP084 P0000 T10061044 400171050 FZRANO
PAPH 240656Z AUTO 04015KT 9SM -SN BKN036 BKN046 BKN110 M01/M04 A2976 RMK AO2 UPE32SNB32 SLP080 P0000 T10111039 FZRANO
PAPH 240556Z AUTO 06015KT 10SM UP OVC046 M01/M04 A2976 RMK AO2 UPB0459E21B49SNE0459B38E49 SLP079 P0000 60000 T10111039 10017 21017 55005 FZRANO
PAPH 240456Z AUTO 05017KT 9SM -SN OVC049 M01/M04 A2975 RMK AO2 SNB41 SLP078 P0000 T10111039 FZRANO
PAPH 240356Z AUTO 07019KT 10SM OVC045 M01/M04 A2976 RMK AO2 PK WND 07029/0333 SLP082 T10061039 FZRANO
PAPH 240256Z AUTO 07018KT 10SM BKN045 OVC055 00/M03 A2977 RMK AO2 UPB14E18SNE14 SLP085 P0000 60000 T00001033 58012 FZRANO
PAPH 240156Z AUTO 03013KT 3SM -SN BR SCT036 BKN049 OVC095 M01/M03 A2979 RMK AO2 WSHFT 0123 RAB0057E08SNB08 SLP092 P0000 T10111028 FZRANO
PAPH 240151Z AUTO 04014KT 3SM -SN BR FEW025 BKN039 OVC095 M01/M02 A2979 RMK AO2 WSHFT 0123 RAB0057E08SNB08 P0000 FZRANO
PAPH 240143Z AUTO 04013KT 1 1/2SM -SN BR FEW016 SCT036 OVC095 M01/M03 A2979 RMK AO2 WSHFT 0123 RAB0057E08SNB08 P0000 FZRANO
PAPH 240131Z AUTO 05012KT 1 1/4SM -SN BR SCT016 SCT070 OVC100 M01/M03 A2980 RMK AO2 RAB0057E08SNB08 P0000 FZRANO
PAPH 240123Z AUTO 08010KT 1SM -SN BR BKN018 BKN031 OVC100 M01/M03 A2981 RMK AO2 VIS 1/2V5 RAB0057E08SNB08 CIG 010V023 P0000 FZRANO
PAPH 240111Z AUTO 08010KT 1 3/4SM -SN FEW018 BKN034 OVC100 00/M04 A2981 RMK AO2 VIS 3/4V5 RAB0057E08SNB08 P0000 FZRANO
PAPH 240056Z AUTO 12012KT 10SM FEW018 BKN034 OVC042 01/M06 A2981 RMK AO2 SLP096 T00111061 FZRANO
PAPH 232356Z AUTO 12011KT 10SM BKN050 OVC060 01/M07 A2982 RMK AO2 SLP101 T00111072 10017 21006 58012 FZRANO
PAPH 232256Z AUTO 13014G19KT 10SM BKN060 01/M06 A2983 RMK AO2 SLP106 T00111061 FZRANO
PAPH 232156Z AUTO 09008KT 10SM CLR 01/M08 A2985 RMK AO2 SLP111 T00111083 FZRANO
PAPH 232056Z AUTO 14008KT 10SM CLR 01/M06 A2985 RMK AO2 SLP112 T00111061 58007 FZRANO
PAPH 231956Z AUTO 15007KT 10SM FEW024 02/M05 A2987 RMK AO2 SLP119 T00171050 FZRANO
PAPH 231856Z AUTO 18006KT 10SM OVC035 01/M04 A2987 RMK AO2 SLP119 T00061044 FZRANO
PAPH 231756Z AUTO 19009KT 10SM FEW041 M01/M04 A2987 RMK AO2 SNE10 SLP119 P0000 60001 T10061039 11006 21050 51007 FZRANO
PAPH 231656Z AUTO 20010KT 6SM -SN BR FEW027 SCT033 OVC060 M02/M04 A2987 RMK AO2 SNB19 SLP118 P0000 T10171039 FZRANO
PAPH 231556Z AUTO 24005KT 10SM OVC075 M03/M07 A2986 RMK AO2 SNB30E41 SLP116 P0000 T10281067 FZRANO
PAPH 231456Z AUTO 28008KT 10SM OVC080 M03/M07 A2985 RMK AO2 SLP112 60001 T10281072 51004 FZRANO
PAPH 231356Z AUTO 23004KT 10SM FEW007 SCT060 BKN070 M04/M06 A2985 RMK AO2 SNB02E50 SLP112 P0001 T10391056 FZRANO
PAPH 231340Z AUTO 27007KT 3SM -SN BR FEW007 BKN045 OVC060 M03/M04 A2985 RMK AO2 SNB02 P0001 FZRANO
PAPH 231337Z AUTO 28008KT 2 1/2SM -SN BR FEW007 BKN023 OVC060 M03/M04 A2985 RMK AO2 VIS 1 1/4V5 SNB02 CIG 016V032 P0001 FZRANO
PAPH 231330Z AUTO 30016KT 3SM -SN BR FEW009 BKN021 OVC065 M03/M04 A2985 RMK AO2 SNB02 P0001 FZRANO
PAPH 231256Z AUTO 22004KT 10SM FEW039 SCT055 BKN070 M05/M07 A2985 RMK AO2 SNB03E43 SLP111 P0000 T10501067 FZRANO
PAPH 231242Z AUTO 23006KT 9SM -SN SCT004 BKN070 M04/M06 A2985 RMK AO2 SNB03 P0000 FZRANO
PAPH 231234Z AUTO 25004KT 3SM -SN BR SCT004 BKN007 BKN016 M04/M06 A2984 RMK AO2 SNB03 CIG 005V010 P0000 FZRANO
PAPH 231231Z AUTO 27005KT 1 1/4SM -SN BR BKN004 BKN016 OVC070 M03/M05 A2984 RMK AO2 SNB03 CIG 002V010 P0000 FZRANO
PAPH 231226Z AUTO 30009KT 3/4SM -SN BR BKN004 BKN016 OVC043 M03/M05 A2984 RMK AO2 SNB03 CIG 003V012 P0000 FZRANO
PAPH 231221Z AUTO 29017G20KT 1/2SM SN FZFG BKN006 BKN014 OVC070 M03/M05 A2985 RMK AO2 SNB03 CIG 003V008 P0000 FZRANO
PAPH 231219Z AUTO 28015G20KT 3/4SM -SN BR SCT006 BKN016 OVC070 M03/M05 A2985 RMK AO2 SNB03 P0000 FZRANO
PAPH 231217Z AUTO 28013G20KT 1SM -SN BR SCT006 BKN016 OVC070 M02/M04 A2985 RMK AO2 SNB03 P0000 FZRANO
PAPH 231213Z AUTO 28016KT 2SM -SN FEW006 BKN039 OVC070 M02/M05 A2985 RMK AO2 VIS 3/4V5 SNB03 P0000 FZRANO